Dati Storici

Data ora Umidita' aria (%) Temperatura aria (°C) Rad globale (W/m²) Gonioanemometro (°) Tacoanemometro (m/s) Pioggia (mm)
20-10-2012 20:00 91.2 % 13.377 2.26 13.335 -0.017 0
20-10-2012 19:50 90.5 % 13.123 1.862 127.457 -0.017 0
20-10-2012 19:40 90 % 13.165 1.824 174.226 -0.013 0
20-10-2012 19:30 89.9 % 13.313 1.727 198.844 -0.014 0
20-10-2012 19:20 89.7 % 13.588 1.508 305.474 -0.016 0
20-10-2012 19:10 89.2 % 13.647 1.637 71.152 -0.015 0
20-10-2012 19:00 89.1 % 13.826 1.893 29.772 0.515 0
20-10-2012 18:50 88.4 % 13.866 1.65 130.198 0.13 0
20-10-2012 18:40 87.4 % 13.978 1.008 224.814 -0.016 0
20-10-2012 18:30 87.7 % 14.351 2.047 106.992 0.314 0
20-10-2012 18:20 86.5 % 14.361 3.316 69.864 0.197 0
20-10-2012 18:10 85 % 14.57 6.121 84.943 -0.018 0
20-10-2012 18:00 84.5 % 14.938 13.383 93.114 0.461 0
20-10-2012 17:50 83.5 % 15.289 23.446 104.012 0.499 0
20-10-2012 17:40 82.4 % 15.569 35.417 110.412 0.694 0
20-10-2012 17:30 81.1 % 15.85 49.169 104.741 0.841 0
20-10-2012 17:20 79.8 % 16.316 66.643 107.273 0.659 0
20-10-2012 17:10 78.9 % 16.545 84.342 144.661 0.019 0
20-10-2012 17:00 77.6 % 16.69 96.109 118.818 0.775 0
20-10-2012 16:50 76 % 17.071 115.354 97.427 0.686 0

I dati sono presentati in modo automatico a scopo informativo. In seguito a verifica i dati possono subire modifiche o essere invalidati e non riportati negli archivi definitivi.